LHBPLHDC

Guest
Details From LHBP - Budapest Ferihegy
To LHDC - Debrecen
Flight Number -
Tags Decoded
Created
Modified
Stats Distance 130 nm / 240 km
Max Altitude 0 ft / 0 m
Waypoints 4
Social Downloads 12
Likes 0
Share VATSIM

Download

Looking for another format? Having issues loading an existing format? Contact us
Advertisement - Login to hide

Notes

Decoded

Route

LHBP NORAH NARKA LHDC

ID Type Via Altitude Latitude Longitude Leg Dist Tot Dist Heading (true) Name
O LHBP APT - 0 ft / 0 m 47.44871˚ 19.22076˚ - 0 nm - -
NORAH FIX - 0 ft / 0 m 47.61624˚ 19.80817˚ 25 nm 25 nm 67° / 67° -
NARKA FIX - 0 ft / 0 m 47.24846˚ 21.85993˚ 86 nm 112 nm 104° / 106° -
O LHDC APT - 0 ft / 0 m 47.48250˚ 21.60167˚ 17 nm 129 nm 323° / 323° -

Altitude Profile

Advertisement - Login to hide

LHBP

Details ICAO LHBP (BUD)
Name Ferihegy (Budapest)
Region Hungary
Timezone Europe/Budapest (UTC+1.0)
Stats Elevation 495 ft / 151 m (AMSL)
Location 47.435292° 19.265792°
Runways 3
Magnetic Variation 4.763° E

METAR

LHBP 111700Z 19015KT 9999 -RA FEW047 BKN100 11/06 Q1002 NOSIG

Decode

TAF

TAF TAF LHBP 111115Z 1112/1212 18015KT CAVOK TEMPO 1115/1124 19020G35KT BECMG 1200/1203 17010KT BECMG 1210/1212 20008KT SCT030 BKN060

Decode

Departure Runways

ID Width Length Bearing (true) Bearing (mag) Surface Threshold Offset Overrun Length
13 250 ft / 76 m 6,000 ft / 1,829 m 132.54° 127.78° Unknown 0 ft / 0 m 0 ft / 0 m
13L 196 ft / 60 m 12,487 ft / 3,806 m 132.54° 127.78° Asphalt 0 ft / 0 m 200 ft / 61 m
13R 196 ft / 60 m 10,145 ft / 3,092 m 132.49° 127.73° Asphalt 0 ft / 0 m 197 ft / 60 m
31 250 ft / 76 m 6,000 ft / 1,829 m 312.55° 307.79° Unknown 0 ft / 0 m 0 ft / 0 m
31L 196 ft / 60 m 10,145 ft / 3,092 m 312.51° 307.75° Asphalt 0 ft / 0 m 197 ft / 60 m
31R 196 ft / 60 m 12,487 ft / 3,806 m 312.56° 307.80° Asphalt 0 ft / 0 m 197 ft / 60 m

LHDC

Details ICAO LHDC (DEB)
Name DEBRECEN
Region Hungary
Timezone Europe/Budapest (UTC+1.0)
Stats Elevation 359 ft / 109 m (AMSL)
Location 47.489417° 21.614576°
Runways 2
Magnetic Variation 5.244° E

METAR

LHDC 111645Z 18017KT CAVOK 09/03 Q1006 NOSIG

Decode

TAF

Not found

Destination Runways

ID Width Length Bearing (true) Bearing (mag) Surface Threshold Offset Overrun Length
05L 230 ft / 70 m 8,081 ft / 2,463 m 47.94° 42.70° Concrete 0 ft / 0 m 0 ft / 0 m
05R 131 ft / 40 m 8,186 ft / 2,495 m 47.82° 42.58° Concrete 0 ft / 0 m 49 ft / 15 m
23L 131 ft / 40 m 8,186 ft / 2,495 m 227.84° 222.60° Concrete 979 ft / 298 m 49 ft / 15 m
23R 230 ft / 70 m 8,081 ft / 2,463 m 227.95° 222.71° Concrete 0 ft / 0 m 0 ft / 0 m

Approach Navaids

Runway Type Ident Frequency Range Bearing (true) Bearing (mag) Slope Elevation
05R Localiser DCN 110.10 MHz 18 nm / 33 km 47.87° 42.62° - 359 ft / 109 m (AMSL)
05R Glidescope DCN 110.10 MHz 10 nm / 19 km 47.83° 42.59° 3.00° 359 ft / 109 m (AMSL)

Popular Alternatives